ADDS METAR Data INFO
IDs: Format: Raw Decoded Include TAF

Data at: 1727 UTC 25 Feb 2018

KPXE 251715Z AUTO 25006KT 10SM SCT028 BKN047 BKN070 24/18 A3014 RMK AO2 T02370179
KPXE 251655Z AUTO 23011KT 10SM BKN028 OVC035 24/18 A3015 RMK AO2 T02350177
KPXE 251635Z AUTO 24013G20KT 10SM SCT023 OVC033 24/18 A3015 RMK AO2 T02360180
KPXE 251615Z AUTO 23014G21KT 10SM BKN023 OVC028 23/18 A3015 RMK AO2 T02260179
KPXE 251555Z AUTO 22016G22KT 10SM BKN021 BKN110 23/18 A3015 RMK AO2 T02320184
KPXE 251535Z AUTO 22010KT 190V250 10SM BKN016 BKN024 22/18 A3014 RMK AO2 T02220185
KPXE 251515Z AUTO 22011KT 10SM OVC016 21/18 A3015 RMK AO2 T02130180
KPXE 251455Z AUTO 23009KT 10SM OVC014 21/18 A3014 RMK AO2 T02090179
KPXE 251435Z AUTO 20011KT 10SM BKN012 BKN019 21/18 A3013 RMK AO2 T02100180
KPXE 251415Z AUTO 23008KT 10SM BKN012 OVC019 20/18 A3013 RMK AO2 T02040181
KPXE 251355Z AUTO 23008KT 10SM OVC010 20/18 A3014 RMK AO2 T01960177
KPXE 251335Z AUTO 23008KT 10SM OVC010 19/17 A3013 RMK AO2 T01930174
KPXE 251315Z AUTO 22008KT 10SM OVC010 19/17 A3012 RMK AO2 T01900174
KPXE 251255Z AUTO 21007KT 10SM OVC010 19/17 A3011 RMK AO2 T01880173
KPXE 251235Z AUTO 22010KT 10SM OVC008 19/17 A3011 RMK AO2 T01860173
KPXE 251215Z AUTO 21010KT 10SM OVC008 18/17 A3011 RMK AO2 T01850172
KPXE 251155Z AUTO 22009KT 10SM OVC008 18/17 A3010 RMK AO2 T01840172 10187 20166
KPXE 251135Z AUTO 23010KT 10SM OVC006 18/17 A3010 RMK AO2 T01820172
KPXE 251115Z AUTO 22010KT 10SM OVC006 18/17 A3009 RMK AO2 T01800172
KPXE 251055Z AUTO 22010KT 5SM BR OVC004 18/17 A3009 RMK AO2 T01780173
KPXE 251035Z AUTO 22008KT 7SM BR OVC006 17/17 A3008 RMK AO2 T01750169
KPXE 251015Z AUTO 22007KT 7SM BR OVC008 17/17 A3008 RMK AO2 T01740166
KPXE 250955Z AUTO 23007KT 10SM BKN010 BKN013 17/16 A3008 RMK AO2 T01730163
KPXE 250935Z AUTO 22006KT 10SM CLR 17/16 A3008 RMK AO2 T01670158
KPXE 250915Z AUTO 22007KT 10SM CLR 17/16 A3008 RMK AO2 T01670156
KPXE 250855Z AUTO 21007KT 10SM CLR 17/16 A3008 RMK AO2 T01670156
KPXE 250835Z AUTO 22006KT 10SM CLR 17/16 A3008 RMK AO2 T01720157
KPXE 250815Z AUTO 21007KT 10SM CLR 17/16 A3009 RMK AO2 T01720156
KPXE 250755Z AUTO 21007KT 10SM CLR 18/16 A3009 RMK AO2 T01770157
KPXE 250735Z AUTO 21008KT 10SM CLR 18/15 A3010 RMK AO2 T01770154
KPXE 250715Z AUTO 22006KT 10SM CLR 18/15 A3010 RMK AO2 T01770151
KPXE 250655Z AUTO 21006KT 10SM CLR 17/15 A3010 RMK AO2 T01740147
KPXE 250635Z AUTO 20006KT 10SM CLR 18/15 A3010 RMK AO2 T01780147
KPXE 250615Z AUTO 20006KT 10SM CLR 18/15 A3010 RMK AO2 T01790147
KPXE 250555Z AUTO 22006KT 10SM CLR 19/15 A3010 RMK AO2 T01870148 10232 20185
KPXE 250535Z AUTO 22008KT 10SM CLR 20/15 A3011 RMK AO2 T01960149
KPXE 250515Z AUTO 21007KT 10SM CLR 19/15 A3010 RMK AO2 T01950147
KPXE 250455Z AUTO 21008KT 10SM CLR 20/15 A3010 RMK AO2 T01980146
KPXE 250435Z AUTO 21009KT 10SM CLR 20/15 A3010 RMK AO2 T02030145
KPXE 250415Z AUTO 20008KT 10SM CLR 20/15 A3010 RMK AO2 T02050146
KPXE 250400Z AUTO 21010KT 10SM CLR 21/15 A3010 RMK AO2 T02100147
KPXE 250335Z AUTO 20009KT 10SM CLR 21/15 A3010 RMK AO2 T02120148
KPXE 250315Z AUTO 20009G15KT 10SM CLR 21/15 A3010 RMK AO2 T02130148
KPXE 250255Z AUTO 20010KT 10SM CLR 22/15 A3010 RMK AO2 T02170149
KPXE 250235Z AUTO 21010KT 10SM CLR 22/15 A3010 RMK AO2 T02180150
KPXE 250215Z AUTO 21008KT 10SM CLR 21/15 A3010 RMK AO2 T02090152
KPXE 250155Z AUTO 20008KT 10SM CLR 20/15 A3009 RMK AO2 T02020153
KPXE 250135Z AUTO 19006KT 10SM CLR 21/15 A3008 RMK AO2 T02050152
KPXE 250115Z AUTO 19006KT 10SM CLR 21/15 A3008 RMK AO2 T02110152
KPXE 250055Z AUTO 19006KT 10SM CLR 22/15 A3008 RMK AO2 T02150152
KPXE 250035Z AUTO 18006KT 10SM SCT060 SCT075 SCT090 23/15 A3007 RMK AO2 T02250154
KPXE 250015Z AUTO 18006KT 10SM BKN060 OVC090 23/15 A3007 RMK AO2 T02280153
KPXE 242355Z AUTO 19005KT 10SM SCT060 SCT090 23/15 A3007 RMK AO2 T02330149 10277 20229 402770133
KPXE 242335Z AUTO 20005KT 10SM CLR 23/15 A3006 RMK AO2 T02330150
KPXE 242315Z AUTO 20009KT 10SM CLR 25/15 A3006 RMK AO2 T02480151
KPXE 242255Z AUTO 20009KT 10SM CLR 25/16 A3006 RMK AO2 T02520157
KPXE 242235Z AUTO 19009KT 10SM CLR 26/16 A3006 RMK AO2 T02570156
KPXE 242215Z AUTO 19014KT 10SM SCT055 SCT075 BKN095 27/16 A3006 RMK AO2 T02650159
KPXE 242155Z AUTO 18009KT 10SM BKN060 BKN075 BKN095 26/16 A3006 RMK AO2 T02580156
KPXE 242135Z AUTO 20009KT 10SM BKN060 BKN070 OVC090 27/16 A3007 RMK AO2 T02700159
KPXE 242115Z AUTO 22012KT 10SM SCT060 BKN090 27/16 A3007 RMK AO2 T02730156
KPXE 242055Z AUTO 20011KT 10SM SCT060 SCT090 27/16 A3007 RMK AO2 T02700155
KPXE 242035Z AUTO 21009KT 10SM SCT060 26/15 A3008 RMK AO2 T02640150
KPXE 242015Z AUTO 24010KT 210V270 10SM SCT050 SCT070 27/15 A3009 RMK AO2 T02720151
KPXE 241955Z AUTO 21009G16KT 10SM SCT050 BKN070 BKN080 27/15 A3010 RMK AO2 T02670154
KPXE 241935Z AUTO 20008KT 10SM BKN050 BKN070 BKN080 26/16 A3011 RMK AO2 T02600155
KPXE 241915Z AUTO 23010KT 10SM BKN050 BKN070 26/16 A3012 RMK AO2 T02650156
KPXE 241855Z AUTO 24013KT 10SM BKN050 BKN070 27/16 A3013 RMK AO2 T02670161
KPXE 241835Z AUTO 21011KT 10SM SCT048 SCT060 BKN065 26/16 A3015 RMK AO2 T02590162
KPXE 241815Z AUTO 22011G18KT 10SM CLR 27/16 A3016 RMK AO2 T02690160
KPXE 241755Z AUTO 21010G15KT 180V250 10SM CLR 26/16 A3018 RMK AO2 T02640157 10268 20138
KPXE 241735Z AUTO 20010KT 10SM SCT043 26/16 A3019 RMK AO2 T02580163
KPXE 241715Z AUTO 21009G20KT 10SM SCT043 26/16 A3020 RMK AO2 T02550162
KPXE 241655Z AUTO 20008G19KT 10SM CLR 26/16 A3020 RMK AO2 T02560160
KPXE 241635Z AUTO 22008KT 10SM CLR 25/16 A3021 RMK AO2 T02500161
KPXE 241615Z AUTO 23010KT 10SM CLR 24/16 A3022 RMK AO2 T02440159
KPXE 241555Z AUTO 22009KT 10SM CLR 24/16 A3022 RMK AO2 T02380163
KPXE 241535Z AUTO 24008KT 10SM CLR 23/17 A3023 RMK AO2 T02270170
KPXE 241515Z AUTO 19005KT 10SM CLR 22/18 A3023 RMK AO2 T02200177
KPXE 241455Z AUTO 18006KT 10SM CLR 21/17 A3023 RMK AO2 T02070174
KPXE 241435Z AUTO 20004KT 10SM CLR 19/17 A3024 RMK AO2 T01910170
KPXE 241415Z AUTO 20006KT 10SM CLR 18/17 A3024 RMK AO2 T01820168
KPXE 241355Z AUTO 19006KT 10SM CLR 17/17 A3024 RMK AO2
KPXE 241335Z AUTO 17004KT 7SM BR CLR 16/16 A3023 RMK AO2 T01650164
KPXE 241315Z AUTO 18003KT 5SM BR SCT050 16/16 A3024 RMK AO2 T01560156
KPXE 241255Z AUTO 00000KT 2 1/2SM BR CLR 15/14 A3023 RMK AO2 T01450145
KPXE 241235Z AUTO 00000KT 1/4SM FG VV002 15/14 A3023 RMK AO2 T01460145
KPXE 241215Z AUTO 00000KT 1/4SM FG BKN007 14/14 A3023 RMK AO2 T01440143
KPXE 241155Z AUTO 00000KT 2SM BR CLR 14/14 A3022 RMK AO2 VIS 1 1/2V3 T01390138 10181 20133
KPXE 241135Z AUTO 00000KT 1SM BR BKN009 14/13 A3022 RMK AO2 T01360134
KPXE 241115Z AUTO 00000KT 1/2SM FG BKN007 14/14 A3023 RMK AO2 T01410140
KPXE 241055Z AUTO 00000KT 3/4SM BR VV005 15/15 A3022 RMK AO2 T01490148
KPXE 241035Z AUTO 00000KT 2SM BR CLR 15/15 A3022 RMK AO2 VIS 3/4V4 T01460145
KPXE 241015Z AUTO 15003KT 7SM BR CLR 14/14 A3021 RMK AO2 T01430141
KPXE 240955Z AUTO 16003KT 4SM BR CLR 15/14 A3021 RMK AO2 T01470145
KPXE 240935Z AUTO 17004KT 10SM CLR 15/14 A3021 RMK AO2 T01460142
KPXE 240915Z AUTO 16004KT 10SM CLR 15/14 A3021 RMK AO2 T01490144
KPXE 240855Z AUTO 16005KT 10SM CLR 14/14 A3021 RMK AO2 T01410138
KPXE 240835Z AUTO 15005KT 10SM CLR 14/14 A3022 RMK AO2 T01440140
KPXE 240815Z AUTO 00000KT 10SM CLR 15/15 A3023 RMK AO2 T01540149
KPXE 240755Z AUTO 13003KT 10SM CLR 15/15 A3023 RMK AO2 T01550147
KPXE 240735Z AUTO 00000KT 10SM CLR 16/15 A3024 RMK AO2 T01620151
KPXE 240715Z AUTO 00000KT 10SM CLR 17/15 A3025 RMK AO2 T01650151
KPXE 240655Z AUTO 00000KT 10SM CLR 17/15 A3026 RMK AO2 T01730153
KPXE 240635Z AUTO 15004KT 10SM CLR 18/15 A3026 RMK AO2 T01760154
KPXE 240615Z AUTO 15006KT 10SM CLR 18/15 A3026 RMK AO2 T01790153
KPXE 240555Z AUTO 15007KT 10SM CLR 18/15 A3026 RMK AO2 T01810152 10229 20157
KPXE 240535Z AUTO 15006KT 10SM CLR 18/15 A3026 RMK AO2 T01840150